Time;durP1;ratioP1;P1;durP2;ratioP2;P2;SDS_P1;SDS_P2;PMS_P1;PMS_P2;Temp;Humidity;BMP_temperature;BMP_pressure;BME280_temperature;BME280_humidity;BME280_pressure;Samples;Min_cycle;Max_cycle;Signal;HPM_P1;HPM_P2
2021/10/11 00:00:05;;;;;;;2.22;1.77;;;23.10;45.30;;;;;;6294067;28;20063;-73
2021/10/11 00:03:06;;;;;;;2.15;1.67;;;23.10;45.30;;;;;;6306945;28;20084;-72
2021/10/11 00:06:06;;;;;;;2.80;1.98;;;23.20;45.30;;;;;;6318811;28;20036;-73
2021/10/11 00:09:07;;;;;;;2.42;1.90;;;23.20;45.30;;;;;;6301312;28;20024;-72
2021/10/11 00:12:07;;;;;;;2.05;1.60;;;23.20;45.30;;;;;;6294087;28;20515;-73
2021/10/11 00:15:08;;;;;;;2.10;1.55;;;23.20;45.30;;;;;;6306373;28;20510;-72
2021/10/11 00:18:09;;;;;;;2.28;1.83;;;23.20;45.30;;;;;;6301189;28;20028;-72
2021/10/11 00:21:13;;;;;;;2.53;2.00;;;23.20;45.30;;;;;;6318871;28;20040;-72
2021/10/11 00:24:14;;;;;;;1.88;1.60;;;23.10;45.20;;;;;;6301590;28;20492;-72
2021/10/11 00:27:15;;;;;;;2.97;2.17;;;23.10;45.20;;;;;;6304192;28;20061;-72
2021/10/11 00:30:15;;;;;;;3.80;2.15;;;23.10;45.30;;;;;;6292959;28;20071;-73
2021/10/11 00:33:16;;;;;;;2.30;1.70;;;23.10;45.20;;;;;;6312546;28;20016;-73
2021/10/11 00:36:16;;;;;;;2.22;1.42;;;23.10;45.20;;;;;;6300017;28;20044;-72
2021/10/11 00:39:17;;;;;;;2.15;1.73;;;23.10;45.80;;;;;;6318241;28;20078;-72
2021/10/11 00:42:17;;;;;;;2.28;1.73;;;23.10;45.10;;;;;;6308084;28;20036;-72
2021/10/11 00:45:18;;;;;;;2.72;2.00;;;23.10;45.10;;;;;;6293037;28;20025;-73
2021/10/11 00:48:19;;;;;;;3.05;1.95;;;23.10;45.10;;;;;;6310149;28;20032;-72
2021/10/11 00:51:20;;;;;;;3.00;2.03;;;23.10;45.10;;;;;;6317794;28;20091;-72
2021/10/11 00:54:21;;;;;;;2.88;2.03;;;23.10;45.10;;;;;;6292438;28;20043;-72
2021/10/11 00:57:22;;;;;;;2.28;1.63;;;23.10;45.20;;;;;;6300285;28;20059;-73
2021/10/11 01:00:22;;;;;;;2.35;1.90;;;23.10;45.10;;;;;;6317432;28;20073;-72
2021/10/11 01:03:23;;;;;;;2.30;1.83;;;23.10;45.10;;;;;;6301696;28;20021;-72
2021/10/11 01:06:24;;;;;;;3.38;2.20;;;23.10;45.10;;;;;;6292708;28;20070;-72
2021/10/11 01:09:24;;;;;;;3.17;2.10;;;23.10;45.10;;;;;;6310408;28;20496;-72
2021/10/11 01:12:25;;;;;;;2.85;1.90;;;23.10;45.00;;;;;;6316405;28;20028;-72
2021/10/11 01:15:26;;;;;;;2.63;1.90;;;23.10;45.00;;;;;;6291945;28;20115;-72
2021/10/11 01:18:27;;;;;;;3.42;2.08;;;23.10;45.00;;;;;;6304858;28;20028;-72
2021/10/11 01:21:27;;;;;;;3.03;2.00;;;23.10;45.10;;;;;;6292303;28;20432;-72
2021/10/11 01:24:28;;;;;;;2.15;1.70;;;23.10;45.00;;;;;;6308513;28;20028;-73
2021/10/11 01:27:28;;;;;;;3.22;1.70;;;23.10;45.10;;;;;;6305550;28;20107;-72
2021/10/11 01:30:29;;;;;;;2.85;1.73;;;23.10;45.10;;;;;;6324750;28;20417;-72
2021/10/11 01:33:29;;;;;;;2.17;1.83;;;23.10;45.00;;;;;;6304555;28;20426;-72
2021/10/11 01:36:31;;;;;;;2.60;1.92;;;23.10;45.00;;;;;;6303363;28;20107;-72
2021/10/11 01:39:31;;;;;;;2.67;1.83;;;23.10;45.00;;;;;;6325602;28;20027;-72
2021/10/11 01:42:32;;;;;;;2.00;1.45;;;23.10;44.90;;;;;;6313971;28;20032;-72
2021/10/11 01:45:34;;;;;;;2.13;1.70;;;23.10;45.00;;;;;;6300599;28;20058;-73
2021/10/11 01:48:34;;;;;;;4.88;1.70;;;23.10;45.00;;;;;;6319243;28;20104;-73
2021/10/11 01:51:35;;;;;;;3.10;1.80;;;23.10;45.00;;;;;;6323032;28;20019;-72
2021/10/11 01:54:35;;;;;;;2.53;1.80;;;23.10;45.00;;;;;;6321254;28;20047;-72
2021/10/11 01:57:36;;;;;;;3.10;1.73;;;23.10;45.00;;;;;;6315254;28;20025;-72
2021/10/11 02:00:37;;;;;;;2.08;1.65;;;23.10;44.90;;;;;;6299889;28;20492;-72
2021/10/11 02:03:37;;;;;;;3.38;1.95;;;23.10;45.00;;;;;;6317147;28;20055;-72
2021/10/11 02:06:38;;;;;;;2.88;2.03;;;23.10;45.00;;;;;;6325257;28;20042;-72
2021/10/11 02:09:38;;;;;;;2.60;1.85;;;23.10;45.00;;;;;;6302443;28;20438;-73
2021/10/11 02:12:39;;;;;;;3.63;2.00;;;23.10;44.90;;;;;;6301476;28;20028;-72
2021/10/11 02:15:40;;;;;;;2.38;1.80;;;23.10;44.90;;;;;;6299578;28;20020;-72
2021/10/11 02:18:40;;;;;;;2.50;1.77;;;23.10;44.90;;;;;;6312888;28;20102;-72
2021/10/11 02:21:41;;;;;;;2.60;2.00;;;23.10;44.90;;;;;;6324920;28;20097;-72
2021/10/11 02:24:42;;;;;;;2.38;1.77;;;23.10;44.90;;;;;;6304786;28;20028;-72
2021/10/11 02:27:42;;;;;;;2.72;1.80;;;23.10;44.90;;;;;;6324205;28;20047;-72
2021/10/11 02:30:43;;;;;;;3.25;2.10;;;23.10;44.90;;;;;;6323156;28;20063;-73
2021/10/11 02:33:44;;;;;;;2.72;2.00;;;23.20;44.90;;;;;;6302038;28;20035;-73
2021/10/11 02:36:45;;;;;;;2.92;1.98;;;23.10;44.80;;;;;;6317006;28;20066;-72
2021/10/11 02:39:45;;;;;;;2.22;1.77;;;23.10;44.90;;;;;;6298339;28;20194;-72
2021/10/11 02:42:46;;;;;;;3.63;1.90;;;23.10;44.90;;;;;;6308674;28;20040;-73
2021/10/11 02:45:46;;;;;;;2.47;1.77;;;23.10;44.90;;;;;;6321033;28;20391;-72
2021/10/11 02:48:47;;;;;;;3.03;2.00;;;23.10;44.90;;;;;;6299464;28;21449;-73
2021/10/11 02:51:47;;;;;;;3.53;2.17;;;23.10;44.90;;;;;;6299062;28;20067;-73
2021/10/11 02:54:48;;;;;;;2.17;1.80;;;23.10;44.90;;;;;;6320750;28;20537;-73
2021/10/11 02:57:48;;;;;;;2.58;2.00;;;23.10;44.90;;;;;;6308812;28;20032;-72
2021/10/11 03:00:49;;;;;;;2.53;1.75;;;23.10;44.90;;;;;;6317615;28;20035;-72
2021/10/11 03:03:49;;;;;;;2.45;1.98;;;23.10;44.80;;;;;;6301518;28;20033;-72
2021/10/11 03:06:50;;;;;;;3.10;1.92;;;23.10;44.80;;;;;;6295635;28;20025;-72
2021/10/11 03:09:50;;;;;;;2.63;2.03;;;23.10;44.90;;;;;;6294842;28;20128;-72
2021/10/11 03:12:51;;;;;;;3.42;2.08;;;23.10;44.80;;;;;;6299827;28;20110;-72
2021/10/11 03:15:51;;;;;;;2.65;2.10;;;23.10;44.80;;;;;;6301705;28;20485;-72
2021/10/11 03:18:52;;;;;;;2.08;1.80;;;23.10;44.80;;;;;;6294859;28;20072;-72
2021/10/11 03:21:53;;;;;;;2.92;1.65;;;23.10;44.80;;;;;;6294897;28;20066;-72
2021/10/11 03:24:53;;;;;;;2.17;1.50;;;23.10;44.80;;;;;;6312982;28;20081;-72
2021/10/11 03:27:54;;;;;;;2.40;1.83;;;23.10;44.80;;;;;;6311414;28;20025;-72
2021/10/11 03:30:55;;;;;;;2.10;1.70;;;23.10;44.80;;;;;;6319932;28;20459;-72
2021/10/11 03:33:55;;;;;;;2.50;1.90;;;23.10;44.80;;;;;;6294928;28;20043;-72
2021/10/11 03:36:56;;;;;;;2.60;1.92;;;23.10;44.80;;;;;;6300949;28;20058;-72
2021/10/11 03:39:56;;;;;;;2.47;2.00;;;23.10;44.80;;;;;;6319411;28;20486;-72
2021/10/11 03:42:57;;;;;;;3.95;2.10;;;23.10;44.80;;;;;;6304673;28;20507;-72
2021/10/11 03:45:58;;;;;;;2.05;1.73;;;23.00;45.40;;;;;;6294102;28;20028;-72
2021/10/11 03:48:59;;;;;;;2.45;1.80;;;22.90;45.90;;;;;;6316705;28;20062;-72
2021/10/11 03:51:59;;;;;;;2.50;2.10;;;22.80;46.20;;;;;;6313294;28;20442;-72
2021/10/11 03:55:00;;;;;;;2.55;1.75;;;22.80;46.50;;;;;;6318867;28;20032;-72
2021/10/11 03:58:00;;;;;;;2.22;1.75;;;22.70;46.70;;;;;;6305868;28;20531;-73
2021/10/11 04:01:01;;;;;;;2.25;1.75;;;22.70;46.90;;;;;;6294061;28;20108;-72
2021/10/11 04:04:01;;;;;;;2.42;1.50;;;22.60;47.10;;;;;;6314600;28;20379;-72
2021/10/11 04:07:07;;;;;;;2.80;1.70;;;22.60;47.20;;;;;;6301248;28;20070;-72
2021/10/11 04:10:09;;;;;;;1.77;1.48;;;22.60;47.30;;;;;;6318984;28;20453;-72
2021/10/11 04:13:10;;;;;;;2.88;2.00;;;22.50;47.30;;;;;;6308981;28;20119;-72
2021/10/11 04:16:11;;;;;;;3.03;1.77;;;22.50;47.50;;;;;;6293579;28;20029;-73
2021/10/11 04:19:12;;;;;;;1.70;1.40;;;22.50;47.60;;;;;;6310771;28;20036;-73
2021/10/11 04:22:12;;;;;;;2.00;1.73;;;22.50;47.70;;;;;;6318176;28;20063;-72
2021/10/11 04:25:13;;;;;;;2.40;1.80;;;22.50;47.80;;;;;;6293522;28;20432;-72
2021/10/11 04:28:15;;;;;;;2.35;1.95;;;22.50;47.80;;;;;;6292984;28;20040;-72
2021/10/11 04:31:16;;;;;;;2.85;1.70;;;22.50;47.90;;;;;;6293342;28;20039;-72
2021/10/11 04:34:16;;;;;;;3.10;1.95;;;22.40;47.90;;;;;;6295539;28;20420;-73
2021/10/11 04:37:17;;;;;;;2.70;2.03;;;22.40;48.00;;;;;;6308029;28;20036;-72
2021/10/11 04:40:19;;;;;;;2.38;1.70;;;22.40;48.00;;;;;;6297504;28;20035;-72
2021/10/11 04:43:19;;;;;;;2.67;1.60;;;22.40;48.10;;;;;;6300361;28;20042;-72
2021/10/11 04:46:20;;;;;;;2.05;1.70;;;22.40;48.20;;;;;;6293741;28;20025;-72
2021/10/11 04:49:20;;;;;;;1.98;1.58;;;22.40;48.30;;;;;;6316577;28;20024;-72
2021/10/11 04:52:21;;;;;;;2.47;1.92;;;22.40;48.40;;;;;;6309718;28;20091;-72
2021/10/11 04:55:22;;;;;;;2.35;1.90;;;22.40;48.40;;;;;;6292628;28;20043;-72
2021/10/11 04:58:22;;;;;;;2.38;1.70;;;22.40;48.50;;;;;;6308293;28;20035;-72
2021/10/11 05:01:23;;;;;;;2.40;1.90;;;22.40;49.20;;;;;;6309921;28;20032;-72
2021/10/11 05:04:23;;;;;;;2.92;1.85;;;22.40;48.60;;;;;;6338810;28;20023;-72
2021/10/11 05:07:24;;;;;;;2.50;1.77;;;22.30;48.50;;;;;;6338419;28;20039;-72
2021/10/11 05:10:25;;;;;;;2.45;1.88;;;22.30;48.50;;;;;;6317411;28;20059;-72
2021/10/11 05:13:25;;;;;;;3.03;1.88;;;22.30;48.60;;;;;;6305024;28;20446;-72
2021/10/11 05:16:27;;;;;;;2.53;1.60;;;22.30;48.70;;;;;;6310936;28;20027;-72
2021/10/11 05:19:28;;;;;;;2.25;1.52;;;22.30;48.70;;;;;;6312232;28;20468;-72
2021/10/11 05:22:29;;;;;;;1.58;1.40;;;22.30;48.80;;;;;;6314298;28;20037;-72
2021/10/11 05:25:30;;;;;;;2.05;1.75;;;22.30;48.90;;;;;;6299612;28;20131;-72
2021/10/11 05:28:30;;;;;;;2.20;1.70;;;22.30;48.80;;;;;;6295628;28;20065;-72
2021/10/11 05:31:31;;;;;;;2.25;1.73;;;22.30;48.90;;;;;;6296731;28;20106;-72
2021/10/11 05:34:32;;;;;;;2.30;1.70;;;22.30;48.90;;;;;;6316733;28;20024;-72
2021/10/11 05:37:34;;;;;;;1.80;1.60;;;22.30;48.90;;;;;;6304906;28;20445;-73
2021/10/11 05:40:35;;;;;;;2.85;1.88;;;22.30;49.00;;;;;;6292229;28;20025;-72
2021/10/11 05:43:36;;;;;;;2.22;1.75;;;22.30;49.00;;;;;;6311888;28;20031;-72
2021/10/11 05:46:37;;;;;;;1.88;1.55;;;22.30;49.00;;;;;;6313865;28;20076;-72
2021/10/11 05:49:38;;;;;;;2.53;1.70;;;22.30;49.00;;;;;;6291830;28;20032;-72
2021/10/11 05:52:38;;;;;;;1.92;1.70;;;22.30;49.10;;;;;;6307393;28;20450;-72
2021/10/11 05:55:39;;;;;;;2.22;1.60;;;22.30;49.10;;;;;;6317234;28;20057;-72
2021/10/11 05:58:39;;;;;;;2.25;1.70;;;22.30;49.20;;;;;;6298406;28;20095;-72
2021/10/11 06:01:40;;;;;;;2.33;1.75;;;22.20;49.00;;;;;;6302717;28;20032;-72
2021/10/11 06:04:41;;;;;;;1.75;1.48;;;22.30;49.20;;;;;;6293697;28;20040;-72
2021/10/11 06:07:42;;;;;;;2.03;1.67;;;22.30;49.20;;;;;;6297133;28;20444;-72
2021/10/11 06:10:42;;;;;;;2.20;1.70;;;22.20;49.10;;;;;;6293872;28;20059;-72
2021/10/11 06:13:46;;;;;;;2.17;1.88;;;22.20;49.20;;;;;;6307119;28;20043;-72
2021/10/11 06:16:47;;;;;;;2.05;1.65;;;22.20;49.30;;;;;;6289844;28;20032;-72
2021/10/11 06:19:48;;;;;;;2.28;1.73;;;22.20;49.20;;;;;;6311397;28;20131;-72
2021/10/11 06:22:48;;;;;;;2.33;1.70;;;22.20;49.30;;;;;;6297203;28;20075;-73
2021/10/11 06:25:49;;;;;;;1.80;1.60;;;22.20;49.40;;;;;;6313847;28;20089;-73
2021/10/11 06:28:49;;;;;;;2.78;1.80;;;22.20;49.40;;;;;;6320741;28;20030;-73
2021/10/11 06:31:50;;;;;;;6.40;1.80;;;22.20;49.50;;;;;;6322535;28;20031;-72
2021/10/11 06:34:50;;;;;;;2.72;2.05;;;22.20;49.50;;;;;;6320874;28;20112;-72
2021/10/11 06:37:51;;;;;;;2.47;1.67;;;22.20;50.30;;;;;;6320222;28;20123;-72
2021/10/11 06:40:52;;;;;;;1.92;1.40;;;22.20;49.60;;;;;;6306746;28;20040;-72
2021/10/11 06:43:53;;;;;;;2.70;1.60;;;22.20;49.70;;;;;;6307003;28;20367;-72
2021/10/11 06:46:53;;;;;;;2.15;1.75;;;22.20;49.70;;;;;;6322801;28;20347;-72
2021/10/11 06:49:54;;;;;;;4.32;1.65;;;22.20;49.70;;;;;;6323576;28;20479;-72
2021/10/11 06:52:54;;;;;;;6.80;2.22;;;22.20;49.70;;;;;;6323044;28;20563;-73
2021/10/11 06:55:55;;;;;;;4.28;2.10;;;22.20;49.50;;;;;;6323369;28;20505;-73
2021/10/11 06:58:55;;;;;;;3.58;1.92;;;22.20;49.50;;;;;;6322460;28;20538;-73
2021/10/11 07:01:56;;;;;;;4.38;2.35;;;22.20;49.50;;;;;;6322509;28;20107;-72
2021/10/11 07:04:58;;;;;;;3.22;2.25;;;22.20;49.50;;;;;;6322337;28;20483;-72
2021/10/11 07:08:00;;;;;;;3.17;2.10;;;22.20;49.50;;;;;;6322540;28;20028;-73
2021/10/11 07:11:00;;;;;;;2.40;1.90;;;22.20;49.50;;;;;;6322280;28;20048;-72
2021/10/11 07:14:01;;;;;;;3.83;2.25;;;22.10;49.50;;;;;;6318727;28;20443;-72
2021/10/11 07:17:01;;;;;;;3.40;2.00;;;22.20;49.60;;;;;;6306407;28;20032;-73
2021/10/11 07:20:04;;;;;;;4.30;1.95;;;22.20;49.60;;;;;;6322184;28;20463;-72
2021/10/11 07:23:04;;;;;;;2.97;1.95;;;22.10;49.60;;;;;;6321336;28;20117;-73
2021/10/11 07:26:07;;;;;;;4.68;2.10;;;22.20;49.60;;;;;;6320660;28;20024;-72
2021/10/11 07:29:08;;;;;;;3.13;2.00;;;22.20;49.70;;;;;;6322147;28;20020;-72
2021/10/11 07:32:08;;;;;;;2.17;1.90;;;22.20;49.60;;;;;;6321977;28;20518;-73
2021/10/11 07:35:09;;;;;;;3.13;2.30;;;22.20;49.70;;;;;;6322155;28;20023;-72
2021/10/11 07:38:10;;;;;;;3.95;2.10;;;22.10;49.60;;;;;;6321646;28;20396;-71
2021/10/11 07:41:11;;;;;;;3.00;2.20;;;22.10;49.70;;;;;;6321558;28;20517;-73
2021/10/11 07:44:11;;;;;;;2.63;1.92;;;22.20;49.70;;;;;;6321939;28;20016;-73
2021/10/11 07:47:12;;;;;;;2.10;1.83;;;22.20;49.70;;;;;;6321600;28;20020;-73
2021/10/11 07:50:12;;;;;;;2.45;2.00;;;22.20;49.80;;;;;;6321637;28;20028;-73
2021/10/11 07:53:13;;;;;;;4.00;2.00;;;22.10;49.70;;;;;;6321247;28;20020;-73
2021/10/11 07:56:14;;;;;;;4.13;2.22;;;22.20;49.80;;;;;;6321856;28;20024;-73
2021/10/11 07:59:15;;;;;;;3.05;2.10;;;22.10;49.70;;;;;;6319676;28;20031;-73
2021/10/11 08:02:15;;;;;;;3.28;1.85;;;22.10;49.80;;;;;;6315413;28;20039;-73
2021/10/11 08:05:16;;;;;;;2.47;1.92;;;22.10;49.70;;;;;;6321302;28;20063;-74
2021/10/11 08:08:17;;;;;;;3.97;2.10;;;22.10;49.80;;;;;;6321341;28;20024;-74
2021/10/11 08:11:18;;;;;;;2.67;2.08;;;22.10;49.70;;;;;;6320642;28;20100;-74
2021/10/11 08:14:18;;;;;;;4.30;2.03;;;22.10;49.80;;;;;;6315894;28;20028;-73
2021/10/11 08:17:19;;;;;;;3.45;2.28;;;22.10;49.80;;;;;;6300095;28;20024;-72
2021/10/11 08:20:19;;;;;;;2.35;1.95;;;22.10;49.80;;;;;;6321112;28;20056;-74
2021/10/11 08:23:20;;;;;;;3.83;2.10;;;22.10;49.80;;;;;;6320981;28;20042;-73
2021/10/11 08:26:21;;;;;;;2.45;1.80;;;22.10;49.80;;;;;;6320573;28;20032;-73
2021/10/11 08:29:22;;;;;;;2.85;1.83;;;22.10;49.80;;;;;;6321020;28;20035;-73
2021/10/11 08:32:24;;;;;;;3.47;1.92;;;22.10;49.90;;;;;;6320777;28;20036;-74
2021/10/11 08:35:25;;;;;;;2.70;1.90;;;22.10;49.90;;;;;;6313570;28;20351;-74
2021/10/11 08:38:25;;;;;;;2.90;1.95;;;22.10;49.90;;;;;;6320359;28;20031;-74
2021/10/11 08:41:26;;;;;;;2.53;1.70;;;22.10;49.90;;;;;;6320865;28;20073;-74
2021/10/11 08:44:27;;;;;;;2.72;2.00;;;22.10;49.90;;;;;;6320727;28;20063;-74
2021/10/11 08:47:27;;;;;;;2.40;1.88;;;22.10;49.90;;;;;;6320424;28;20023;-72
2021/10/11 08:50:28;;;;;;;2.40;1.63;;;22.10;49.90;;;;;;6320383;28;20050;-73
2021/10/11 08:53:28;;;;;;;2.15;1.90;;;22.10;49.90;;;;;;6320568;28;20502;-74
2021/10/11 08:56:29;;;;;;;2.08;1.83;;;22.10;50.00;;;;;;6320230;28;20110;-73
2021/10/11 08:59:30;;;;;;;2.38;1.80;;;22.10;50.00;;;;;;6320707;28;20024;-73
2021/10/11 09:02:30;;;;;;;1.88;1.67;;;22.10;50.00;;;;;;6319108;28;20031;-74
2021/10/11 09:05:53;;;;;;;2.15;1.65;;;22.10;50.00;;;;;;6320491;28;20056;-74
2021/10/11 09:08:53;;;;;;;2.60;1.80;;;22.10;50.00;;;;;;6319564;28;20513;-74
2021/10/11 09:11:54;;;;;;;6.43;2.08;;;22.10;50.00;;;;;;6320379;28;20060;-74
2021/10/11 09:15:12;;;;;;;2.00;1.77;;;22.10;50.00;;;;;;6308996;28;20036;-74
2021/10/11 09:18:26;;;;;;;3.03;1.90;;;22.10;50.10;;;;;;6314315;28;20031;-74
2021/10/11 09:21:35;;;;;;;2.13;1.92;;;22.10;50.10;;;;;;6320458;28;20024;-74
2021/10/11 09:24:35;;;;;;;2.08;1.77;;;22.10;50.70;;;;;;6319794;28;20020;-72
2021/10/11 09:27:49;;;;;;;2.25;1.67;;;22.10;50.10;;;;;;6319803;28;20024;-72
2021/10/11 09:30:50;;;;;;;2.90;1.88;;;22.10;50.20;;;;;;6319917;28;20537;-73
2021/10/11 09:34:00;;;;;;;2.25;1.75;;;22.10;50.10;;;;;;6319317;28;20028;-74
2021/10/11 09:37:03;;;;;;;2.53;2.00;;;22.10;50.10;;;;;;6319406;28;20107;-73
2021/10/11 09:40:05;;;;;;;3.60;2.08;;;22.10;50.10;;;;;;6319430;28;20028;-74
2021/10/11 09:43:18;;;;;;;2.75;1.90;;;22.10;50.10;;;;;;6319431;28;20059;-74
2021/10/11 09:46:20;;;;;;;2.80;1.85;;;22.10;50.20;;;;;;6317907;28;20052;-72
2021/10/11 09:49:24;;;;;;;2.50;1.80;;;22.10;50.20;;;;;;6320612;28;20020;-72
2021/10/11 09:52:25;;;;;;;2.85;1.88;;;22.10;50.20;;;;;;6323979;28;20023;-74
2021/10/11 09:55:25;;;;;;;2.13;1.80;;;22.10;50.20;;;;;;6324247;28;20028;-73
2021/10/11 09:58:26;;;;;;;2.35;1.75;;;22.10;50.20;;;;;;6324653;28;20024;-74
2021/10/11 10:01:28;;;;;;;3.35;2.00;;;22.10;50.20;;;;;;6324223;28;20429;-74
2021/10/11 10:04:35;;;;;;;2.78;1.88;;;22.10;50.20;;;;;;6324985;28;20062;-74
2021/10/11 10:07:39;;;;;;;2.22;1.80;;;22.10;50.30;;;;;;6323653;28;20408;-74
2021/10/11 10:10:41;;;;;;;2.43;1.67;;;22.10;50.20;;;;;;6324494;28;20127;-74
2021/10/11 10:13:47;;;;;;;2.40;1.70;;;22.10;50.20;;;;;;6323356;28;20965;-73
2021/10/11 10:16:53;;;;;;;2.35;1.70;;;22.10;50.20;;;;;;6299166;28;20465;-74
2021/10/11 10:20:13;;;;;;;3.38;2.20;;;22.10;50.30;;;;;;6298347;28;20054;-74
2021/10/11 10:23:32;;;;;;;2.80;1.95;;;22.10;50.30;;;;;;6309397;28;20039;-73
2021/10/11 10:26:34;;;;;;;2.08;1.73;;;22.10;50.20;;;;;;6323313;28;20107;-74
2021/10/11 10:29:48;;;;;;;2.30;1.60;;;22.10;50.20;;;;;;6322981;28;20487;-73
2021/10/11 10:33:02;;;;;;;2.45;1.90;;;22.10;50.30;;;;;;6323469;28;20056;-74
2021/10/11 10:36:04;;;;;;;2.85;1.70;;;22.10;50.30;;;;;;6323700;28;20020;-74
2021/10/11 10:39:10;;;;;;;3.00;2.10;;;22.00;50.20;;;;;;6323104;28;20569;-74
2021/10/11 10:42:27;;;;;;;2.55;1.83;;;22.10;50.30;;;;;;6322972;28;20395;-74
2021/10/11 10:45:27;;;;;;;1.83;1.67;;;22.10;50.30;;;;;;6323032;28;20016;-74
2021/10/11 10:48:28;;;;;;;1.48;1.27;;;22.10;50.30;;;;;;6322985;28;20502;-74
2021/10/11 10:51:29;;;;;;;2.00;1.60;;;22.10;50.30;;;;;;6322866;28;20149;-73
2021/10/11 10:54:38;;;;;;;2.78;1.67;;;22.10;50.40;;;;;;6323313;28;20047;-74
2021/10/11 10:57:41;;;;;;;2.95;1.63;;;22.10;50.30;;;;;;6322859;28;20104;-74
2021/10/11 11:00:42;;;;;;;2.20;1.50;;;22.10;50.50;;;;;;6321890;28;20536;-74
2021/10/11 11:03:43;;;;;;;2.88;1.52;;;22.10;50.40;;;;;;6322200;28;20043;-74
2021/10/11 11:06:44;;;;;;;2.75;1.70;;;22.10;50.40;;;;;;6320447;28;20024;-74
2021/10/11 11:09:45;;;;;;;2.50;1.80;;;22.10;50.40;;;;;;6322100;28;20115;-73
2021/10/11 11:12:56;;;;;;;2.33;1.67;;;22.10;50.40;;;;;;6322581;28;20118;-74
2021/10/11 11:15:56;;;;;;;3.55;1.95;;;22.10;50.40;;;;;;6320161;28;20036;-74
2021/10/11 11:18:58;;;;;;;2.28;1.60;;;22.10;50.40;;;;;;6322385;28;20387;-74
2021/10/11 11:21:59;;;;;;;1.33;1.23;;;22.10;50.40;;;;;;6322202;28;20039;-73
2021/10/11 11:25:02;;;;;;;2.00;1.60;;;22.10;50.40;;;;;;6321857;28;20070;-74
2021/10/11 11:28:05;;;;;;;2.42;1.75;;;22.10;50.40;;;;;;6321281;28;20391;-74
2021/10/11 11:31:10;;;;;;;3.13;1.98;;;22.10;50.40;;;;;;6322472;28;20056;-74
2021/10/11 11:34:10;;;;;;;2.33;1.60;;;22.10;50.40;;;;;;6322185;28;20043;-74
2021/10/11 11:37:11;;;;;;;3.15;1.63;;;22.10;50.40;;;;;;6322075;28;20036;-74
2021/10/11 11:40:12;;;;;;;2.10;1.70;;;22.10;50.40;;;;;;6321589;28;20036;-74
2021/10/11 11:43:13;;;;;;;2.00;1.58;;;22.10;50.50;;;;;;6322678;28;20031;-74
2021/10/11 11:46:14;;;;;;;2.03;1.48;;;22.10;50.50;;;;;;6321173;28;20430;-74
2021/10/11 11:49:24;;;;;;;1.77;1.38;;;22.10;50.50;;;;;;6321527;28;20031;-73
2021/10/11 11:52:32;;;;;;;1.42;1.25;;;22.10;50.50;;;;;;6320700;28;20079;-74
2021/10/11 11:55:34;;;;;;;2.47;1.55;;;22.10;50.60;;;;;;6321072;28;20035;-74
2021/10/11 11:58:37;;;;;;;2.25;1.75;;;22.10;50.50;;;;;;6321285;28;20103;-73
2021/10/11 12:01:38;;;;;;;2.08;1.48;;;22.10;50.50;;;;;;6321057;28;20032;-74
2021/10/11 12:04:39;;;;;;;2.53;1.50;;;22.10;50.50;;;;;;6321661;28;20027;-73
2021/10/11 12:07:40;;;;;;;2.40;1.70;;;22.10;50.50;;;;;;6321162;28;20118;-74
2021/10/11 12:10:41;;;;;;;1.33;1.17;;;22.00;50.50;;;;;;6321112;28;20039;-73
2021/10/11 12:13:44;;;;;;;1.98;1.35;;;22.10;50.60;;;;;;6320231;28;20376;-73
2021/10/11 12:16:44;;;;;;;1.67;1.20;;;22.10;50.60;;;;;;6295972;28;20040;-74
2021/10/11 12:19:45;;;;;;;1.77;1.30;;;22.00;50.50;;;;;;6318438;28;20032;-74
2021/10/11 12:22:54;;;;;;;2.10;1.50;;;22.10;50.60;;;;;;6320548;28;20032;-73
2021/10/11 12:26:03;;;;;;;2.15;1.60;;;22.00;50.50;;;;;;6318186;28;20027;-73
2021/10/11 12:29:07;;;;;;;1.92;1.48;;;22.10;50.70;;;;;;6320844;28;20060;-73
2021/10/11 12:32:09;;;;;;;1.58;1.40;;;22.10;50.70;;;;;;6320738;28;20118;-71
2021/10/11 12:35:10;;;;;;;2.45;1.70;;;22.10;50.70;;;;;;6320078;28;20016;-73
2021/10/11 12:38:13;;;;;;;1.98;1.55;;;22.10;50.70;;;;;;6320714;28;20522;-74
2021/10/11 12:41:16;;;;;;;1.70;1.48;;;22.10;50.70;;;;;;6320214;28;20119;-74
2021/10/11 12:44:23;;;;;;;1.52;1.20;;;22.10;50.70;;;;;;6320708;28;20508;-74
2021/10/11 12:47:29;;;;;;;1.67;1.50;;;22.10;50.70;;;;;;6319958;28;20032;-74
2021/10/11 12:50:30;;;;;;;2.40;1.60;;;22.10;50.70;;;;;;6320431;28;20106;-73
2021/10/11 12:53:32;;;;;;;1.90;1.23;;;22.10;50.70;;;;;;6320036;28;20512;-73
2021/10/11 12:56:34;;;;;;;1.92;1.40;;;22.00;50.70;;;;;;6320212;28;20114;-73
2021/10/11 12:59:36;;;;;;;1.65;1.40;;;22.10;50.70;;;;;;6320211;28;20471;-73
2021/10/11 13:02:41;;;;;;;1.60;1.30;;;22.00;50.70;;;;;;6319726;28;20036;-74
2021/10/11 13:05:41;;;;;;;2.03;1.63;;;22.00;50.70;;;;;;6319936;28;20095;-73
2021/10/11 13:08:42;;;;;;;1.85;1.20;;;22.10;50.80;;;;;;6319263;28;20035;-73
2021/10/11 13:11:43;;;;;;;2.28;1.67;;;22.10;50.80;;;;;;6319857;28;20052;-74
2021/10/11 13:14:45;;;;;;;1.90;1.52;;;22.00;50.70;;;;;;6307010;28;20113;-73
2021/10/11 13:17:45;;;;;;;1.88;1.40;;;22.10;50.80;;;;;;6309937;28;20024;-74
2021/10/11 13:20:46;;;;;;;2.70;1.40;;;22.00;50.70;;;;;;6319333;28;20396;-73
2021/10/11 13:23:47;;;;;;;2.72;1.40;;;22.10;50.80;;;;;;6319226;28;20383;-74
2021/10/11 13:26:47;;;;;;;2.00;1.42;;;22.00;50.70;;;;;;6319147;28;20028;-74
2021/10/11 14:29:13;;;;;;;1.65;1.33;;;22.00;50.90;;;;;;6319246;28;20028;-74
2021/10/11 15:58:16;;;;;;;1.48;1.20;;;22.00;51.20;;;;;;6309673;28;20027;-73
2021/10/11 16:04:37;;;;;;;1.77;1.10;;;22.00;51.20;;;;;;6321409;28;20402;-73
2021/10/11 16:07:40;;;;;;;1.10;0.85;;;22.00;51.20;;;;;;6319838;28;20458;-74
2021/10/11 16:10:40;;;;;;;1.92;1.20;;;22.00;51.20;;;;;;6320844;28;20040;-73
2021/10/11 16:13:41;;;;;;;1.05;0.82;;;21.90;51.10;;;;;;6320322;28;20454;-73
2021/10/11 16:16:42;;;;;;;1.92;1.10;;;22.00;51.20;;;;;;6294188;28;20017;-73
2021/10/11 16:19:42;;;;;;;1.05;0.82;;;21.90;51.20;;;;;;6314781;28;20436;-73
2021/10/11 16:22:43;;;;;;;1.40;0.90;;;22.00;51.20;;;;;;6318830;28;20410;-73
2021/10/11 16:25:43;;;;;;;1.80;1.13;;;22.00;51.30;;;;;;6318601;28;20482;-74
2021/10/11 16:28:44;;;;;;;2.25;1.10;;;22.00;51.30;;;;;;6316322;28;20059;-73
2021/10/11 16:31:46;;;;;;;1.48;0.95;;;22.00;51.20;;;;;;6318901;28;20022;-73
2021/10/11 16:34:46;;;;;;;2.20;1.25;;;22.00;51.30;;;;;;6318881;28;20027;-73
2021/10/11 16:37:46;;;;;;;1.33;0.98;;;22.00;51.30;;;;;;6318541;28;20479;-73
2021/10/11 16:40:47;;;;;;;1.83;1.20;;;22.00;51.30;;;;;;6318327;28;20030;-73
2021/10/11 16:43:47;;;;;;;1.35;1.00;;;22.00;51.30;;;;;;6318018;28;20058;-73
2021/10/11 16:46:48;;;;;;;1.38;1.08;;;21.90;51.20;;;;;;6318388;28;20027;-73
2021/10/11 16:49:49;;;;;;;1.15;0.93;;;22.00;51.30;;;;;;6318192;28;20483;-73
2021/10/11 16:52:50;;;;;;;1.05;0.80;;;22.00;51.30;;;;;;6318314;28;20357;-73
2021/10/11 16:55:50;;;;;;;0.77;0.70;;;22.00;51.30;;;;;;6318182;28;20047;-73
2021/10/11 16:58:52;;;;;;;1.55;1.08;;;22.00;51.30;;;;;;6318331;28;20020;-73
2021/10/11 17:01:52;;;;;;;1.52;1.08;;;22.00;51.40;;;;;;6310594;28;20040;-73
2021/10/11 17:04:53;;;;;;;1.30;0.85;;;22.00;51.40;;;;;;6294117;28;20028;-73
2021/10/11 17:07:54;;;;;;;1.20;1.00;;;21.90;51.30;;;;;;6314861;28;20134;-73
2021/10/11 17:10:55;;;;;;;1.40;0.95;;;22.00;51.40;;;;;;6318031;28;20393;-73
2021/10/11 17:13:59;;;;;;;1.48;0.90;;;22.00;51.40;;;;;;6315016;28;20062;-73
2021/10/11 17:17:00;;;;;;;1.27;0.80;;;22.00;51.40;;;;;;6301918;28;20020;-73
2021/10/11 17:20:00;;;;;;;1.23;1.02;;;22.00;51.40;;;;;;6318011;28;20024;-73
2021/10/11 17:23:01;;;;;;;1.25;0.90;;;21.90;51.30;;;;;;6316562;28;20414;-74
2021/10/11 17:26:02;;;;;;;2.20;1.17;;;22.00;51.40;;;;;;6317399;28;20032;-73
2021/10/11 17:29:03;;;;;;;0.88;0.70;;;21.90;51.40;;;;;;6315375;28;20046;-74
2021/10/11 17:32:05;;;;;;;1.40;0.90;;;21.90;51.30;;;;;;6317208;28;20019;-73
2021/10/11 17:35:06;;;;;;;1.58;1.00;;;22.00;51.50;;;;;;6317161;28;20032;-73
2021/10/11 17:38:07;;;;;;;1.38;0.90;;;22.00;51.50;;;;;;6316958;28;20039;-73
2021/10/11 17:41:07;;;;;;;1.08;0.98;;;21.90;51.40;;;;;;6317861;28;20498;-73
2021/10/11 17:44:08;;;;;;;1.10;0.90;;;22.00;51.50;;;;;;6317127;28;20032;-73
2021/10/11 17:47:08;;;;;;;1.38;0.80;;;22.00;51.60;;;;;;6317148;28;20077;-73
2021/10/11 17:50:09;;;;;;;1.48;0.90;;;22.00;51.50;;;;;;6317545;28;20028;-74
2021/10/11 17:53:10;;;;;;;0.90;0.80;;;22.00;51.50;;;;;;6317208;28;20077;-73
2021/10/11 17:56:11;;;;;;;2.95;0.95;;;22.00;51.50;;;;;;6317084;28;20024;-73
2021/10/11 17:59:11;;;;;;;1.60;0.90;;;22.00;51.50;;;;;;6317100;28;20391;-73
2021/10/11 18:02:12;;;;;;;1.08;0.88;;;22.00;51.50;;;;;;6317271;28;20035;-73
2021/10/11 18:05:12;;;;;;;1.02;0.82;;;21.90;51.40;;;;;;6315771;28;20449;-73
2021/10/11 18:08:13;;;;;;;1.08;0.90;;;22.00;51.60;;;;;;6317041;28;20035;-73
2021/10/11 18:11:14;;;;;;;1.15;0.82;;;21.90;51.40;;;;;;6318866;28;20514;-73
2021/10/11 18:14:14;;;;;;;2.45;0.88;;;22.00;51.50;;;;;;6316888;28;20069;-73